Time;durP1;ratioP1;P1;durP2;ratioP2;P2;SDS_P1;SDS_P2;PMS_P1;PMS_P2;Temp;Humidity;BMP_temperature;BMP_pressure;BME280_temperature;BME280_humidity;BME280_pressure;Samples;Min_cycle;Max_cycle;Signal;HPM_P1;HPM_P2
2022/08/26 00:02:06;;;;;;;39.25;32.97;;;23.30;64.60;;;;;;4976532;28;20057;-77
2022/08/26 00:04:34;;;;;;;42.63;33.90;;;23.20;65.00;;;;;;4976704;28;20057;-77
2022/08/26 00:07:01;;;;;;;43.95;34.33;;;23.20;65.40;;;;;;4994026;28;20301;-77
2022/08/26 00:09:28;;;;;;;41.22;33.80;;;23.10;65.50;;;;;;4991907;28;20061;-77
2022/08/26 00:11:55;;;;;;;37.90;31.90;;;23.10;65.70;;;;;;4975980;28;20049;-77
2022/08/26 00:14:24;;;;;;;43.00;36.03;;;23.00;65.60;;;;;;4974787;28;20074;-77
2022/08/26 00:16:51;;;;;;;43.63;35.17;;;23.00;65.80;;;;;;4955689;28;20048;-77
2022/08/26 00:19:19;;;;;;;43.88;33.72;;;23.00;66.10;;;;;;4972498;28;20745;-77
2022/08/26 00:21:48;;;;;;;43.80;35.55;;;23.00;66.20;;;;;;4972784;28;20142;-77
2022/08/26 00:24:15;;;;;;;44.63;33.03;;;22.90;66.30;;;;;;4955479;28;20047;-77
2022/08/26 00:26:42;;;;;;;42.60;32.75;;;22.90;66.00;;;;;;4972392;28;20091;-77
2022/08/26 00:29:09;;;;;;;39.60;31.07;;;22.90;66.20;;;;;;4939111;28;20053;-77
2022/08/26 00:31:36;;;;;;;41.88;34.70;;;22.90;67.00;;;;;;4955622;28;20282;-77
2022/08/26 00:34:03;;;;;;;44.67;35.47;;;22.90;67.30;;;;;;4974301;28;20061;-77
2022/08/26 00:36:30;;;;;;;40.63;32.75;;;22.80;67.60;;;;;;4956898;28;20485;-77
2022/08/26 00:38:59;;;;;;;41.55;32.50;;;22.80;67.70;;;;;;4956455;28;20062;-77
2022/08/26 00:41:26;;;;;;;41.63;33.03;;;22.70;67.70;;;;;;4974300;28;20083;-77
2022/08/26 00:43:53;;;;;;;38.30;31.15;;;22.70;68.70;;;;;;4956550;28;20677;-77
2022/08/26 00:46:24;;;;;;;42.75;31.85;;;22.60;68.70;;;;;;4956260;28;20135;-77
2022/08/26 00:48:57;;;;;;;39.03;26.30;;;22.60;69.30;;;;;;4956170;28;20585;-77
2022/08/26 00:51:27;;;;;;;38.70;29.83;;;22.50;70.10;;;;;;4956503;28;20160;-77
2022/08/26 00:54:00;;;;;;;40.57;28.37;;;22.50;70.40;;;;;;4956226;28;20050;-77
2022/08/26 00:56:31;;;;;;;40.22;28.35;;;22.50;71.40;;;;;;4956559;28;20275;-77
2022/08/26 00:59:02;;;;;;;37.47;27.58;;;22.40;71.20;;;;;;4973384;28;20059;-77
2022/08/26 01:01:29;;;;;;;34.65;26.42;;;22.30;71.70;;;;;;4974031;28;20134;-77
2022/08/26 01:03:57;;;;;;;38.40;27.15;;;22.30;71.50;;;;;;4974036;28;20502;-77
2022/08/26 01:06:25;;;;;;;38.20;27.33;;;22.30;71.60;;;;;;4956453;28;20187;-77
2022/08/26 01:08:52;;;;;;;33.53;23.83;;;22.30;71.80;;;;;;4956238;28;21267;-77
2022/08/26 01:11:20;;;;;;;37.15;26.27;;;22.30;71.70;;;;;;4939584;28;20136;-77
2022/08/26 01:13:50;;;;;;;31.77;18.85;;;22.30;71.90;;;;;;4973697;28;20058;-77
2022/08/26 01:16:17;;;;;;;33.92;24.70;;;22.30;72.10;;;;;;4939824;28;20451;-77
2022/08/26 01:18:46;;;;;;;36.20;26.07;;;22.30;72.50;;;;;;4973622;28;20134;-77
2022/08/26 01:21:20;;;;;;;31.58;22.35;;;22.30;72.50;;;;;;4955761;28;20255;-77
2022/08/26 01:23:51;;;;;;;38.83;24.73;;;22.30;73.20;;;;;;4956107;28;20178;-77
2022/08/26 01:26:22;;;;;;;30.77;22.35;;;22.30;73.20;;;;;;4973715;28;20656;-77
2022/08/26 01:28:50;;;;;;;35.50;24.23;;;22.20;73.60;;;;;;4955873;28;20058;-77
2022/08/26 01:31:20;;;;;;;31.83;23.07;;;22.20;73.50;;;;;;4956194;28;20060;-77
2022/08/26 01:33:55;;;;;;;33.03;23.13;;;22.20;73.60;;;;;;4973322;28;20444;-77
2022/08/26 01:36:22;;;;;;;35.22;23.25;;;22.20;73.90;;;;;;4955871;28;20059;-77
2022/08/26 01:38:51;;;;;;;35.28;23.30;;;22.20;74.30;;;;;;4955587;28;20055;-77
2022/08/26 01:41:19;;;;;;;32.65;22.65;;;22.10;74.00;;;;;;4955878;28;20106;-77
2022/08/26 01:43:50;;;;;;;31.63;22.57;;;22.10;74.00;;;;;;4973080;28;20130;-77
2022/08/26 01:46:18;;;;;;;32.35;22.13;;;22.10;74.50;;;;;;4972624;28;20271;-77
2022/08/26 01:48:46;;;;;;;28.75;20.33;;;22.10;74.70;;;;;;4939534;28;20810;-77
2022/08/26 01:51:14;;;;;;;30.60;21.17;;;22.10;74.30;;;;;;4972862;28;20051;-77
2022/08/26 01:53:41;;;;;;;30.30;20.10;;;22.10;74.90;;;;;;4955782;28;20081;-77
2022/08/26 01:56:11;;;;;;;29.83;20.90;;;22.00;74.80;;;;;;4956102;28;21021;-77
2022/08/26 01:59:06;;;;;;;30.48;20.10;;;22.00;74.80;;;;;;4959977;28;20355;-77
2022/08/26 02:01:34;;;;;;;31.60;21.02;;;22.00;75.80;;;;;;4972765;28;20077;-77
2022/08/26 02:04:08;;;;;;;30.70;21.95;;;21.90;75.90;;;;;;4955327;28;20142;-77
2022/08/26 02:06:36;;;;;;;29.38;19.63;;;21.90;75.40;;;;;;4972959;28;20130;-77
2022/08/26 02:09:05;;;;;;;30.57;20.43;;;21.90;75.90;;;;;;4955132;28;20051;-77
2022/08/26 02:11:34;;;;;;;30.98;20.38;;;21.90;75.40;;;;;;4972992;28;20391;-77
2022/08/26 02:14:05;;;;;;;27.85;19.13;;;21.90;75.40;;;;;;4973044;28;20142;-77
2022/08/26 02:16:36;;;;;;;26.52;17.63;;;21.90;75.40;;;;;;4973111;28;20055;-77
2022/08/26 02:19:06;;;;;;;28.15;19.60;;;21.90;75.70;;;;;;4955177;28;20047;-77
2022/08/26 02:21:33;;;;;;;32.63;20.60;;;21.80;75.20;;;;;;4955270;28;20544;-77
2022/08/26 02:24:09;;;;;;;28.42;19.10;;;21.80;75.20;;;;;;4971700;28;20272;-77
2022/08/26 02:26:38;;;;;;;26.05;18.05;;;21.90;75.30;;;;;;4972533;28;20051;-77
2022/08/26 02:29:09;;;;;;;27.65;19.17;;;21.80;75.50;;;;;;4954693;28;20062;-77
2022/08/26 02:31:36;;;;;;;28.42;19.35;;;21.80;75.50;;;;;;4972978;28;20076;-77
2022/08/26 02:34:10;;;;;;;26.07;18.73;;;21.80;75.10;;;;;;4972279;28;20448;-77
2022/08/26 02:36:37;;;;;;;26.88;18.60;;;21.80;75.10;;;;;;4955231;28;20250;-77
2022/08/26 02:39:04;;;;;;;23.77;19.00;;;21.80;74.70;;;;;;4954546;28;20888;-77
2022/08/26 02:41:31;;;;;;;25.13;18.10;;;21.90;75.00;;;;;;4955070;28;20047;-77
2022/08/26 02:44:00;;;;;;;26.73;17.48;;;21.80;75.00;;;;;;4938859;28;20061;-77
2022/08/26 02:46:27;;;;;;;25.60;17.50;;;21.80;75.10;;;;;;4938622;28;20049;-77
2022/08/26 02:48:54;;;;;;;24.40;16.48;;;21.80;75.30;;;;;;4972060;28;20281;-77
2022/08/26 02:51:21;;;;;;;28.48;17.42;;;21.70;75.20;;;;;;4954714;28;20086;-77
2022/08/26 02:53:48;;;;;;;24.05;16.33;;;21.70;75.70;;;;;;4972055;28;20572;-77
2022/08/26 02:56:14;;;;;;;25.13;16.27;;;21.70;75.40;;;;;;4972259;28;20051;-77
2022/08/26 02:58:41;;;;;;;23.77;15.40;;;21.70;75.50;;;;;;4954789;28;20055;-77
2022/08/26 03:01:20;;;;;;;22.92;14.70;;;21.70;75.40;;;;;;4954609;28;20342;-77
2022/08/26 03:03:47;;;;;;;23.23;15.50;;;21.70;75.40;;;;;;4954976;28;20122;-77
2022/08/26 03:06:14;;;;;;;23.27;15.07;;;21.70;75.50;;;;;;4972254;28;20054;-77
2022/08/26 03:08:41;;;;;;;22.52;15.43;;;21.70;75.50;;;;;;4972065;28;20170;-77
2022/08/26 03:11:09;;;;;;;21.53;14.53;;;21.70;75.30;;;;;;4954348;28;20091;-77
2022/08/26 03:13:37;;;;;;;23.70;14.93;;;21.70;75.10;;;;;;4954607;28;20274;-77
2022/08/26 03:16:04;;;;;;;25.52;15.27;;;21.70;74.80;;;;;;4971797;28;20055;-77
2022/08/26 03:18:33;;;;;;;24.55;14.13;;;21.70;75.30;;;;;;4954464;28;20055;-77
2022/08/26 03:21:05;;;;;;;22.33;15.63;;;21.70;74.90;;;;;;4971698;28;20551;-77
2022/08/26 03:23:33;;;;;;;23.27;14.90;;;21.70;74.70;;;;;;4971907;28;20063;-77
2022/08/26 03:26:00;;;;;;;24.27;13.35;;;21.70;75.20;;;;;;4972034;28;20339;-77
2022/08/26 03:28:27;;;;;;;22.95;13.65;;;21.70;74.50;;;;;;4971960;28;20067;-77
2022/08/26 03:30:53;;;;;;;20.85;14.20;;;21.70;75.40;;;;;;4953998;28;20055;-77
2022/08/26 03:33:21;;;;;;;20.98;13.48;;;21.70;74.80;;;;;;4971565;28;20477;-77
2022/08/26 03:35:50;;;;;;;19.60;13.10;;;21.70;75.00;;;;;;4957155;28;20078;-77
2022/08/26 03:38:18;;;;;;;21.13;13.70;;;21.70;74.80;;;;;;4957867;28;20276;-77
2022/08/26 03:40:45;;;;;;;19.85;12.60;;;21.70;75.00;;;;;;4974923;28;20055;-77
2022/08/26 03:43:13;;;;;;;21.85;12.07;;;21.70;74.40;;;;;;4957797;28;20083;-77
2022/08/26 03:45:40;;;;;;;21.48;13.80;;;21.70;74.50;;;;;;4974781;28;20071;-77
2022/08/26 03:48:07;;;;;;;20.07;13.50;;;21.80;74.30;;;;;;4974752;28;20051;-77
2022/08/26 03:50:36;;;;;;;18.10;11.05;;;21.80;74.10;;;;;;4957284;28;20244;-77
2022/08/26 03:53:04;;;;;;;18.08;11.45;;;21.80;74.10;;;;;;4957874;28;20126;-77
2022/08/26 03:55:33;;;;;;;20.75;12.65;;;21.90;74.30;;;;;;4974849;28;20063;-77
2022/08/26 03:58:00;;;;;;;22.33;12.35;;;21.90;74.30;;;;;;4941633;28;20053;-77
2022/08/26 04:00:28;;;;;;;19.73;12.57;;;21.80;74.50;;;;;;4957262;28;20055;-77
2022/08/26 04:02:55;;;;;;;19.83;11.60;;;21.90;74.20;;;;;;4974950;28;20279;-77
2022/08/26 04:05:23;;;;;;;20.83;12.35;;;21.90;74.20;;;;;;4957435;28;20055;-77
2022/08/26 04:07:51;;;;;;;20.17;12.18;;;21.90;74.00;;;;;;4974741;28;20059;-77
2022/08/26 04:10:22;;;;;;;19.00;11.45;;;21.90;74.00;;;;;;4956883;28;20047;-77
2022/08/26 04:12:50;;;;;;;19.37;11.70;;;21.90;74.10;;;;;;4957179;28;20060;-77
2022/08/26 04:15:18;;;;;;;20.27;11.48;;;21.90;74.30;;;;;;4956839;28;20350;-77
2022/08/26 04:17:45;;;;;;;20.52;11.30;;;21.90;74.40;;;;;;4974318;28;20062;-77
2022/08/26 04:20:12;;;;;;;18.10;11.35;;;21.90;74.30;;;;;;4956738;28;20051;-77
2022/08/26 04:22:40;;;;;;;16.77;10.52;;;21.90;74.40;;;;;;4956858;28;20051;-77
2022/08/26 04:25:09;;;;;;;18.03;9.67;;;21.80;74.10;;;;;;4956726;28;20054;-77
2022/08/26 04:27:37;;;;;;;15.63;9.18;;;21.90;74.20;;;;;;4957020;28;20287;-77
2022/08/26 04:30:05;;;;;;;18.15;9.68;;;21.80;74.20;;;;;;4956603;28;20057;-77
2022/08/26 04:32:32;;;;;;;16.13;10.02;;;21.70;74.40;;;;;;4956875;28;20047;-77
2022/08/26 04:34:59;;;;;;;17.33;9.75;;;21.70;74.40;;;;;;4956722;28;20062;-77
2022/08/26 04:37:26;;;;;;;21.07;10.30;;;21.70;74.30;;;;;;4956814;28;20055;-77
2022/08/26 04:39:53;;;;;;;15.75;8.85;;;21.70;74.40;;;;;;4940048;28;20263;-77
2022/08/26 04:42:21;;;;;;;16.52;8.27;;;21.70;74.10;;;;;;4957006;28;20394;-77
2022/08/26 04:44:49;;;;;;;17.00;9.38;;;21.70;74.00;;;;;;4973539;28;20087;-77
2022/08/26 04:47:16;;;;;;;16.75;9.38;;;21.70;73.90;;;;;;4973109;28;20142;-77
2022/08/26 04:49:43;;;;;;;14.97;9.53;;;21.70;74.00;;;;;;4956156;28;20075;-77
2022/08/26 04:52:10;;;;;;;17.83;9.77;;;21.70;73.70;;;;;;4973772;28;20370;-77
2022/08/26 04:54:37;;;;;;;18.67;9.45;;;21.70;73.90;;;;;;4956456;28;20914;-77
2022/08/26 04:57:04;;;;;;;15.30;9.18;;;21.70;74.00;;;;;;4956503;28;20044;-78
2022/08/26 04:59:32;;;;;;;13.40;8.43;;;21.70;74.00;;;;;;4977580;28;20061;-77
2022/08/26 05:02:01;;;;;;;17.37;8.90;;;21.70;74.10;;;;;;4973561;28;20055;-77
2022/08/26 05:04:28;;;;;;;16.15;9.27;;;21.70;73.80;;;;;;4955978;28;20310;-77
2022/08/26 05:06:55;;;;;;;19.13;9.15;;;21.70;74.20;;;;;;4973667;28;20079;-77
2022/08/26 05:09:23;;;;;;;12.63;8.00;;;21.70;73.80;;;;;;4955928;28;20645;-77
2022/08/26 05:11:50;;;;;;;16.38;8.65;;;21.70;73.90;;;;;;4973899;28;20139;-77
2022/08/26 05:14:18;;;;;;;14.27;7.90;;;21.70;74.00;;;;;;4956346;28;20047;-77
2022/08/26 05:16:44;;;;;;;17.52;8.57;;;21.70;74.00;;;;;;4960443;28;20275;-77
2022/08/26 05:19:13;;;;;;;15.02;7.50;;;21.70;73.80;;;;;;4975595;28;20104;-77
2022/08/26 05:21:40;;;;;;;16.42;7.95;;;21.70;73.70;;;;;;4975564;28;20054;-77
2022/08/26 05:24:07;;;;;;;14.35;8.82;;;21.70;73.80;;;;;;4993042;28;20059;-77
2022/08/26 05:26:34;;;;;;;16.93;8.20;;;21.70;73.90;;;;;;4975620;28;20054;-77
2022/08/26 05:29:01;;;;;;;17.20;8.00;;;21.70;73.90;;;;;;4992789;28;20334;-77
2022/08/26 05:31:30;;;;;;;14.15;7.88;;;21.70;73.70;;;;;;4975542;28;20576;-77
2022/08/26 05:33:58;;;;;;;13.00;7.10;;;21.70;74.00;;;;;;4974937;28;20054;-77
2022/08/26 05:36:30;;;;;;;13.48;7.50;;;21.70;74.20;;;;;;4975003;28;20050;-77
2022/08/26 05:38:57;;;;;;;13.17;7.33;;;21.70;73.80;;;;;;4975168;28;20122;-77
2022/08/26 05:41:27;;;;;;;12.65;6.65;;;21.70;73.70;;;;;;4993114;28;20267;-77
2022/08/26 05:43:55;;;;;;;13.75;7.13;;;21.70;73.70;;;;;;4992610;28;20089;-77
2022/08/26 05:46:22;;;;;;;13.48;6.70;;;21.80;73.40;;;;;;4972851;28;20137;-77
2022/08/26 05:48:50;;;;;;;13.32;6.65;;;21.80;73.30;;;;;;4984905;28;20051;-77
2022/08/26 05:51:17;;;;;;;15.97;7.07;;;21.80;73.40;;;;;;4962921;28;20047;-77
2022/08/26 05:53:45;;;;;;;12.20;6.95;;;21.90;73.50;;;;;;4965379;28;20770;-77
2022/08/26 05:56:13;;;;;;;12.38;6.70;;;21.90;73.50;;;;;;4965511;28;20058;-78
2022/08/26 05:58:41;;;;;;;14.10;6.68;;;21.90;73.30;;;;;;4963127;28;20051;-77
2022/08/26 06:01:11;;;;;;;11.18;6.88;;;21.90;73.20;;;;;;4976282;28;20517;-77
2022/08/26 06:03:40;;;;;;;13.57;6.93;;;21.90;72.80;;;;;;4972334;28;20110;-77
2022/08/26 06:06:10;;;;;;;13.25;6.50;;;21.90;72.80;;;;;;4985694;28;20791;-77
2022/08/26 06:08:38;;;;;;;14.95;6.85;;;21.90;72.90;;;;;;4987248;28;20142;-77
2022/08/26 06:11:09;;;;;;;11.55;5.72;;;21.90;72.70;;;;;;4977277;28;20126;-79
2022/08/26 06:13:37;;;;;;;9.35;5.60;;;21.90;72.60;;;;;;4970020;28;20097;-78
2022/08/26 06:16:06;;;;;;;13.97;6.20;;;21.90;73.00;;;;;;4983276;28;20523;-75
2022/08/26 06:18:35;;;;;;;11.27;6.05;;;21.90;73.00;;;;;;4970095;28;20641;-75
2022/08/26 06:21:13;;;;;;;12.65;7.07;;;21.90;73.30;;;;;;4973828;28;20090;-75
2022/08/26 06:26:26;;;;;;;13.07;6.15;;;21.90;73.20;;;;;;4969619;28;20054;-76
2022/08/26 06:28:54;;;;;;;14.13;6.43;;;21.90;73.50;;;;;;4963902;28;20177;-76
2022/08/26 06:31:21;;;;;;;12.98;5.50;;;21.90;73.60;;;;;;4969239;28;20255;-76
2022/08/26 06:33:48;;;;;;;12.93;6.32;;;21.90;73.50;;;;;;4981006;28;20099;-76
2022/08/26 06:36:18;;;;;;;11.05;5.32;;;21.90;73.70;;;;;;4991528;28;20087;-76
2022/08/26 06:38:45;;;;;;;11.65;5.53;;;21.90;73.70;;;;;;4990879;28;20051;-76
2022/08/26 06:41:12;;;;;;;13.60;5.80;;;21.90;73.60;;;;;;4960717;28;20059;-76
2022/08/26 06:43:41;;;;;;;11.95;5.05;;;21.90;73.70;;;;;;4961921;28;20264;-77
2022/08/26 06:46:10;;;;;;;12.73;5.50;;;21.90;73.80;;;;;;4968248;28;20138;-76
2022/08/26 06:48:38;;;;;;;12.25;5.07;;;21.90;74.00;;;;;;4961135;28;20050;-77
2022/08/26 06:51:07;;;;;;;14.43;5.25;;;21.90;73.70;;;;;;4962281;28;20054;-76
2022/08/26 06:53:35;;;;;;;14.03;4.57;;;22.00;73.70;;;;;;4989186;28;20889;-77
2022/08/26 06:56:04;;;;;;;14.25;5.50;;;22.00;73.50;;;;;;4974170;28;21379;-76
2022/08/26 06:58:31;;;;;;;11.15;4.82;;;22.00;73.50;;;;;;4973820;28;20062;-76
2022/08/26 07:00:59;;;;;;;12.93;5.13;;;22.00;73.40;;;;;;4973413;28;20043;-77
2022/08/26 07:03:26;;;;;;;12.15;4.97;;;22.00;73.80;;;;;;4991682;28;20050;-76
2022/08/26 07:05:54;;;;;;;11.57;5.17;;;22.00;73.80;;;;;;4949656;28;20062;-75
2022/08/26 07:08:22;;;;;;;12.15;5.00;;;22.00;73.30;;;;;;4972686;28;20263;-75
2022/08/26 07:10:49;;;;;;;12.20;4.53;;;22.00;73.50;;;;;;4975504;28;20083;-76
2022/08/26 07:13:17;;;;;;;9.85;4.50;;;22.00;73.80;;;;;;4973629;28;21015;-76
2022/08/26 07:15:43;;;;;;;10.15;4.45;;;22.00;73.90;;;;;;4970624;28;20054;-76
2022/08/26 07:18:12;;;;;;;9.93;4.43;;;22.00;73.70;;;;;;4972115;28;20061;-76
2022/08/26 07:20:40;;;;;;;14.10;4.18;;;22.00;74.30;;;;;;4965335;28;20726;-76
2022/08/26 07:23:28;;;;;;;12.00;3.95;;;22.00;74.00;;;;;;4975792;28;20043;-77
2022/08/26 07:25:55;;;;;;;9.18;3.70;;;22.00;73.90;;;;;;4984327;28;20506;-76
2022/08/26 07:28:22;;;;;;;11.80;3.80;;;22.00;74.20;;;;;;4966592;28;20054;-77
2022/08/26 07:30:50;;;;;;;9.07;3.40;;;22.00;74.50;;;;;;4956207;28;20045;-78
2022/08/26 07:33:18;;;;;;;9.55;3.70;;;21.90;74.50;;;;;;4969593;28;20283;-75
2022/08/26 07:35:45;;;;;;;9.18;3.70;;;21.90;74.70;;;;;;4961091;28;20106;-75
2022/08/26 07:38:12;;;;;;;7.85;3.22;;;21.90;74.40;;;;;;4971995;28;20105;-76
2022/08/26 07:40:40;;;;;;;12.32;3.63;;;21.90;74.20;;;;;;4955808;28;20059;-76
2022/08/26 07:43:08;;;;;;;9.47;3.10;;;21.90;74.50;;;;;;4983546;28;20055;-77
2022/08/26 07:45:35;;;;;;;9.82;3.47;;;21.90;74.30;;;;;;4945690;28;20283;-76
2022/08/26 07:48:02;;;;;;;9.02;2.90;;;21.90;74.50;;;;;;4971677;28;20069;-76
2022/08/26 07:50:30;;;;;;;10.90;3.33;;;21.90;74.50;;;;;;4898864;28;20417;-76
2022/08/26 07:52:58;;;;;;;7.22;2.88;;;21.90;74.60;;;;;;4965176;28;21694;-76
2022/08/26 07:55:24;;;;;;;8.80;3.10;;;21.90;74.40;;;;;;4967362;28;20055;-76
2022/08/26 07:57:51;;;;;;;9.77;2.90;;;21.90;74.60;;;;;;4962196;28;20255;-76
2022/08/26 08:00:19;;;;;;;10.82;2.95;;;21.80;74.50;;;;;;4954025;28;20074;-75
2022/08/26 08:02:46;;;;;;;8.63;2.85;;;21.80;74.70;;;;;;4952424;28;20083;-76
2022/08/26 08:05:15;;;;;;;11.70;3.10;;;21.80;74.60;;;;;;4944511;28;20059;-76
2022/08/26 08:07:44;;;;;;;7.57;2.80;;;21.70;75.00;;;;;;4935148;28;20446;-76
2022/08/26 08:10:13;;;;;;;8.45;2.70;;;21.70;74.70;;;;;;4937268;28;20257;-76
2022/08/26 08:12:41;;;;;;;9.88;2.63;;;21.70;74.70;;;;;;4967030;28;20074;-76
2022/08/26 08:15:10;;;;;;;8.80;2.78;;;21.70;74.70;;;;;;4969972;28;20059;-75
2022/08/26 08:17:37;;;;;;;8.30;2.33;;;21.70;74.60;;;;;;4971496;28;20445;-75
2022/08/26 08:20:05;;;;;;;9.10;2.50;;;21.70;74.40;;;;;;4972395;28;20098;-75
2022/08/26 08:22:32;;;;;;;7.28;2.05;;;21.70;74.70;;;;;;4980710;28;20765;-75
2022/08/26 08:25:00;;;;;;;7.45;2.22;;;21.70;74.60;;;;;;4971817;28;20080;-76
2022/08/26 08:27:28;;;;;;;7.93;2.25;;;21.70;74.80;;;;;;4951314;28;20522;-76
2022/08/26 08:29:55;;;;;;;7.95;2.20;;;21.70;74.70;;;;;;4963858;28;21856;-76
2022/08/26 08:32:23;;;;;;;7.83;2.30;;;21.70;74.70;;;;;;4967836;28;20055;-76
2022/08/26 08:34:49;;;;;;;9.15;2.10;;;21.70;74.70;;;;;;4946189;28;20292;-76
2022/08/26 08:37:16;;;;;;;8.15;2.00;;;21.70;74.70;;;;;;4963741;28;20709;-76
2022/08/26 08:39:44;;;;;;;7.85;1.90;;;21.70;74.50;;;;;;4960904;28;20052;-77
2022/08/26 08:42:43;;;;;;;11.38;2.05;;;21.70;74.50;;;;;;4981640;28;20130;-76
2022/08/26 08:45:14;;;;;;;6.17;2.00;;;21.70;74.20;;;;;;4934174;28;20053;-75
2022/08/26 08:47:45;;;;;;;7.80;2.00;;;21.70;74.40;;;;;;4974681;28;20275;-76
2022/08/26 08:50:28;;;;;;;9.57;2.08;;;21.70;74.30;;;;;;4973600;28;20055;-76
2022/08/26 08:53:05;;;;;;;6.68;1.63;;;21.70;74.40;;;;;;4953934;28;20941;-76
2022/08/26 08:55:42;;;;;;;6.95;1.63;;;21.70;74.50;;;;;;4943403;28;20730;-75
2022/08/26 08:58:16;;;;;;;5.40;1.40;;;21.70;74.30;;;;;;4945309;28;20047;-76
2022/08/26 09:00:51;;;;;;;7.22;1.65;;;21.70;74.10;;;;;;4945475;28;20270;-75
2022/08/26 09:03:31;;;;;;;7.70;1.75;;;21.70;74.20;;;;;;4940613;28;20062;-76
2022/08/26 09:06:01;;;;;;;7.25;1.17;;;21.70;74.20;;;;;;4955125;28;20207;-76
2022/08/26 09:08:33;;;;;;;6.38;1.35;;;21.60;74.00;;;;;;4943473;28;20059;-75
2022/08/26 09:11:02;;;;;;;6.07;1.60;;;21.70;73.90;;;;;;4952080;28;20111;-75
2022/08/26 09:13:30;;;;;;;6.13;1.27;;;21.70;74.00;;;;;;4954922;28;20252;-76
2022/08/26 09:16:06;;;;;;;5.75;1.30;;;21.70;74.00;;;;;;4972601;28;20063;-76
2022/08/26 09:18:46;;;;;;;7.68;1.52;;;21.70;73.70;;;;;;4972597;28;20055;-76
2022/08/26 09:21:15;;;;;;;6.75;1.52;;;21.70;73.90;;;;;;4954730;28;20146;-77
2022/08/26 09:23:44;;;;;;;6.43;1.50;;;21.70;74.00;;;;;;4971278;28;20053;-77
2022/08/26 09:26:17;;;;;;;7.53;1.60;;;21.70;74.20;;;;;;4973054;28;20280;-77
2022/08/26 09:28:48;;;;;;;7.85;1.50;;;21.60;74.20;;;;;;4956338;28;20137;-77
2022/08/26 09:31:21;;;;;;;9.23;1.63;;;21.60;74.10;;;;;;4956321;28;20146;-77
2022/08/26 09:33:49;;;;;;;8.07;1.60;;;21.60;74.20;;;;;;4955991;28;20122;-76
2022/08/26 09:36:21;;;;;;;8.07;1.57;;;21.60;74.10;;;;;;4940280;28;20047;-77
2022/08/26 09:38:50;;;;;;;7.63;1.60;;;21.60;73.70;;;;;;4953253;28;20673;-77
2022/08/26 09:41:24;;;;;;;6.53;1.40;;;21.70;73.90;;;;;;4954084;28;20118;-76
2022/08/26 09:44:17;;;;;;;6.60;1.77;;;21.70;74.00;;;;;;4969199;28;20055;-75
2022/08/26 09:46:51;;;;;;;7.20;1.70;;;21.70;73.40;;;;;;4946510;28;20757;-76
2022/08/26 09:49:31;;;;;;;6.63;1.40;;;21.70;73.60;;;;;;4939572;28;20055;-76
2022/08/26 09:52:13;;;;;;;6.72;1.50;;;21.70;73.30;;;;;;4937201;28;20252;-77
2022/08/26 09:54:41;;;;;;;5.10;1.30;;;21.70;73.60;;;;;;4958604;28;20579;-76
2022/08/26 09:57:20;;;;;;;10.05;1.40;;;21.60;73.90;;;;;;4958142;28;20474;-75
2022/08/26 09:59:49;;;;;;;7.32;1.45;;;21.60;74.10;;;;;;4965234;28;20552;-76
2022/08/26 10:02:40;;;;;;;6.30;1.57;;;21.60;73.90;;;;;;4947750;28;20122;-76
2022/08/26 10:05:15;;;;;;;8.60;1.60;;;21.60;73.90;;;;;;4967807;28;20271;-75
2022/08/26 10:07:45;;;;;;;9.55;1.60;;;21.60;73.70;;;;;;4938871;28;20078;-76
2022/08/26 10:10:17;;;;;;;7.72;1.42;;;21.60;73.70;;;;;;4950635;28;20079;-75
2022/08/26 10:12:55;;;;;;;8.80;1.67;;;21.70;73.70;;;;;;4963320;28;20103;-76
2022/08/26 10:15:26;;;;;;;6.63;1.50;;;21.70;73.80;;;;;;4958065;28;20710;-75
2022/08/26 10:18:01;;;;;;;5.78;1.25;;;21.70;73.60;;;;;;4940198;28;20279;-76
2022/08/26 10:20:32;;;;;;;8.65;1.60;;;21.70;73.50;;;;;;4956500;28;20060;-76
2022/08/26 10:23:03;;;;;;;7.25;1.48;;;21.70;73.30;;;;;;4956147;28;20110;-75
2022/08/26 10:25:34;;;;;;;7.38;1.50;;;21.70;73.20;;;;;;4946910;28;20059;-76
2022/08/26 10:28:08;;;;;;;8.50;2.07;;;21.70;73.20;;;;;;4953548;28;20059;-75
2022/08/26 10:30:40;;;;;;;7.80;1.52;;;21.80;73.20;;;;;;4943230;28;20319;-75
2022/08/26 10:33:10;;;;;;;6.95;1.70;;;21.80;73.00;;;;;;4966676;28;20065;-74
2022/08/26 10:35:44;;;;;;;7.78;1.42;;;21.80;72.90;;;;;;4954586;28;20059;-77
2022/08/26 10:38:15;;;;;;;8.43;1.70;;;21.90;72.70;;;;;;4954006;28;20051;-75
2022/08/26 10:40:53;;;;;;;9.57;1.67;;;21.90;72.90;;;;;;4948000;28;20902;-76
2022/08/26 10:43:24;;;;;;;5.22;1.58;;;21.90;73.00;;;;;;4952852;28;20252;-75
2022/08/26 10:45:55;;;;;;;7.75;1.65;;;21.90;73.00;;;;;;4962007;28;20127;-75
2022/08/26 10:48:29;;;;;;;6.28;1.77;;;21.90;72.90;;;;;;4963677;28;20051;-76
2022/08/26 10:50:57;;;;;;;6.30;1.30;;;21.90;73.00;;;;;;4972181;28;20162;-76
2022/08/26 10:53:33;;;;;;;7.13;1.80;;;21.90;72.90;;;;;;4954912;28;20047;-75
2022/08/26 10:56:05;;;;;;;8.75;1.73;;;21.90;72.90;;;;;;4954734;28;20259;-75
2022/08/26 10:58:47;;;;;;;6.97;1.58;;;21.90;73.00;;;;;;4971240;28;20047;-75
2022/08/26 11:04:16;;;;;;;7.20;1.90;;;21.90;72.70;;;;;;4963136;28;20171;-76
2022/08/26 11:06:44;;;;;;;5.90;1.40;;;22.00;72.60;;;;;;4967039;28;20062;-76
2022/08/26 11:09:32;;;;;;;5.90;1.17;;;22.00;72.40;;;;;;4944208;28;20716;-77
2022/08/26 11:12:01;;;;;;;7.70;1.48;;;22.00;72.80;;;;;;4944706;28;20065;-76
2022/08/26 11:14:34;;;;;;;7.68;1.45;;;22.00;72.50;;;;;;4952138;28;20063;-75
2022/08/26 11:17:01;;;;;;;8.00;1.20;;;21.90;72.40;;;;;;4934743;28;20048;-75
2022/08/26 11:19:57;;;;;;;8.00;1.47;;;21.90;72.60;;;;;;4951929;28;20055;-75
2022/08/26 11:22:26;;;;;;;4.53;1.40;;;21.90;72.60;;;;;;4952534;28;20286;-75
2022/08/26 11:25:06;;;;;;;8.40;1.40;;;21.70;72.60;;;;;;4935230;28;20055;-75
2022/08/26 11:28:04;;;;;;;9.55;1.25;;;21.70;72.90;;;;;;4946236;28;20044;-75
2022/08/26 11:30:44;;;;;;;6.78;1.38;;;21.70;72.50;;;;;;4980897;28;20596;-77
2022/08/26 11:33:58;;;;;;;5.83;1.23;;;21.70;73.00;;;;;;4950844;28;20971;-76
2022/08/26 11:36:39;;;;;;;7.93;1.52;;;21.70;72.90;;;;;;4935149;28;20741;-76
2022/08/26 11:39:17;;;;;;;8.43;1.50;;;21.70;73.20;;;;;;4952652;28;20442;-75
2022/08/26 11:41:46;;;;;;;7.55;1.30;;;21.70;73.00;;;;;;4950079;28;20044;-75
2022/08/26 11:44:18;;;;;;;9.40;1.50;;;21.70;73.00;;;;;;4971734;28;20066;-75
2022/08/26 11:46:53;;;;;;;6.03;1.30;;;21.70;72.90;;;;;;4969274;28;20475;-75
2022/08/26 11:49:20;;;;;;;7.32;1.50;;;21.70;72.90;;;;;;4951532;28;20626;-75
2022/08/26 11:51:48;;;;;;;6.75;1.50;;;21.70;72.90;;;;;;4937613;28;20040;-75
2022/08/26 11:54:17;;;;;;;7.78;1.38;;;21.70;73.00;;;;;;4971345;28;20056;-75
2022/08/26 11:56:47;;;;;;;5.70;1.00;;;21.70;73.00;;;;;;4956698;28;20089;-75
2022/08/26 11:59:19;;;;;;;7.30;1.27;;;21.70;72.90;;;;;;4955381;28;20055;-75
2022/08/26 12:01:52;;;;;;;6.25;1.20;;;21.70;72.90;;;;;;4957289;28;20303;-75
2022/08/26 12:04:27;;;;;;;5.38;1.15;;;21.70;73.00;;;;;;4957600;28;20520;-75
2022/08/26 12:06:56;;;;;;;5.85;1.27;;;21.70;72.90;;;;;;4955703;28;20087;-75
2022/08/26 12:09:29;;;;;;;7.30;1.30;;;21.70;72.90;;;;;;4970276;28;20056;-75
2022/08/26 12:12:11;;;;;;;6.00;1.20;;;21.70;73.00;;;;;;4970037;28;20115;-75
2022/08/26 12:14:38;;;;;;;5.32;1.20;;;21.70;72.90;;;;;;4970364;28;20259;-75
2022/08/26 12:17:10;;;;;;;5.05;1.23;;;21.70;73.00;;;;;;4969853;28;20056;-75
2022/08/26 12:19:38;;;;;;;11.27;1.50;;;21.70;72.80;;;;;;4970753;28;20044;-75
2022/08/26 12:22:13;;;;;;;8.32;1.48;;;21.70;72.80;;;;;;4959060;28;20051;-75
2022/08/26 12:24:44;;;;;;;5.53;1.30;;;21.70;73.20;;;;;;4973073;28;20055;-75
2022/08/26 12:27:16;;;;;;;8.18;1.30;;;21.70;73.40;;;;;;4961263;28;20287;-75
2022/08/26 12:29:43;;;;;;;6.57;1.45;;;21.70;73.50;;;;;;4954612;28;20543;-75
2022/08/26 12:32:13;;;;;;;4.45;0.80;;;21.70;73.80;;;;;;4968509;28;20910;-75
2022/08/26 12:34:41;;;;;;;4.93;1.00;;;21.70;73.80;;;;;;4974272;28;20522;-75
2022/08/26 12:37:11;;;;;;;4.17;1.20;;;21.70;74.70;;;;;;4968427;28;20085;-75
2022/08/26 12:39:41;;;;;;;4.95;1.00;;;21.60;75.00;;;;;;4963546;28;20256;-75
2022/08/26 12:42:23;;;;;;;5.80;1.10;;;21.60;74.90;;;;;;4953517;28;20051;-75
2022/08/26 12:44:58;;;;;;;4.70;1.00;;;21.70;74.90;;;;;;4954612;28;20051;-75
2022/08/26 12:47:28;;;;;;;5.88;1.00;;;21.60;74.80;;;;;;4954475;28;20542;-74
2022/08/26 12:50:05;;;;;;;5.17;1.20;;;21.60;74.80;;;;;;4954446;28;20064;-75
2022/08/26 12:52:39;;;;;;;6.55;1.40;;;21.60;74.90;;;;;;4954458;28;20792;-75
2022/08/26 12:55:18;;;;;;;4.65;1.08;;;21.60;74.90;;;;;;4939878;28;20052;-75
2022/08/26 12:57:46;;;;;;;5.38;1.02;;;21.70;74.40;;;;;;4951386;28;21055;-75
2022/08/26 13:00:33;;;;;;;3.63;1.30;;;21.60;74.20;;;;;;4945188;28;20051;-81